Time;durP1;ratioP1;P1;durP2;ratioP2;P2;SDS_P1;SDS_P2;PMS_P1;PMS_P2;Temp;Humidity;BMP_temperature;BMP_pressure;BME280_temperature;BME280_humidity;BME280_pressure;Samples;Min_cycle;Max_cycle;Signal;HPM_P1;HPM_P2
2023/06/11 00:00:08;;;;;;;14.15;12.65;;;16.30;99.90;;;;;;5116122;28;20176;-75
2023/06/11 00:02:33;;;;;;;19.50;12.60;;;16.30;99.90;;;;;;5116120;28;20031;-75
2023/06/11 00:05:03;;;;;;;20.90;13.50;;;16.30;99.90;;;;;;5134714;28;20464;-75
2023/06/11 00:07:30;;;;;;;17.92;13.45;;;16.30;99.90;;;;;;5134497;28;20030;-75
2023/06/11 00:09:56;;;;;;;18.10;13.82;;;16.30;99.90;;;;;;5134369;28;20042;-75
2023/06/11 00:12:21;;;;;;;42.33;15.32;;;16.30;99.90;;;;;;5117828;27;20035;-75
2023/06/11 00:14:47;;;;;;;16.27;13.20;;;16.30;99.90;;;;;;5119948;27;20494;-75
2023/06/11 00:17:12;;;;;;;18.60;13.35;;;16.30;99.90;;;;;;5138254;27;20043;-75
2023/06/11 00:19:40;;;;;;;19.60;13.73;;;16.20;99.90;;;;;;5119432;27;20397;-75
2023/06/11 00:22:08;;;;;;;19.80;13.35;;;16.20;99.90;;;;;;5138407;27;20066;-75
2023/06/11 00:24:34;;;;;;;17.90;12.75;;;16.20;99.90;;;;;;5119672;27;20500;-75
2023/06/11 00:27:01;;;;;;;16.20;13.98;;;16.20;99.90;;;;;;5138001;27;20034;-75
2023/06/11 00:29:27;;;;;;;15.23;13.32;;;16.10;99.90;;;;;;5137940;27;20023;-75
2023/06/11 00:31:54;;;;;;;17.60;13.52;;;16.10;99.90;;;;;;5137955;27;20023;-75
2023/06/11 00:34:20;;;;;;;15.50;13.07;;;16.10;99.90;;;;;;5137886;27;20027;-75
2023/06/11 00:36:45;;;;;;;17.73;13.85;;;16.00;99.90;;;;;;5119314;27;20053;-75
2023/06/11 00:39:12;;;;;;;14.93;13.38;;;16.00;99.90;;;;;;5137857;27;20111;-75
2023/06/11 00:41:39;;;;;;;16.95;12.85;;;15.90;99.90;;;;;;5137461;27;20469;-75
2023/06/11 00:44:06;;;;;;;17.35;14.10;;;15.90;99.90;;;;;;5119299;27;20031;-76
2023/06/11 00:46:32;;;;;;;13.75;12.35;;;15.80;99.90;;;;;;5119846;27;20043;-76
2023/06/11 00:48:58;;;;;;;14.90;12.68;;;15.80;99.90;;;;;;5119444;27;20042;-75
2023/06/11 00:51:25;;;;;;;15.40;12.20;;;15.70;99.90;;;;;;5137651;27;20027;-76
2023/06/11 00:53:52;;;;;;;13.43;12.02;;;15.70;99.90;;;;;;5137581;27;20041;-75
2023/06/11 00:56:19;;;;;;;14.18;11.75;;;15.70;99.90;;;;;;5119120;27;20074;-75
2023/06/11 00:58:46;;;;;;;13.88;11.27;;;15.60;99.90;;;;;;5119129;27;20039;-76
2023/06/11 01:01:19;;;;;;;12.98;11.57;;;15.60;99.90;;;;;;5118988;27;20031;-75
2023/06/11 01:03:45;;;;;;;15.38;12.68;;;15.50;99.90;;;;;;5137428;27;20034;-75
2023/06/11 01:06:17;;;;;;;13.85;11.20;;;15.50;99.90;;;;;;5119043;27;20027;-76
2023/06/11 01:08:44;;;;;;;15.88;12.80;;;15.50;99.90;;;;;;5137440;27;20023;-75
2023/06/11 01:11:21;;;;;;;17.40;12.75;;;15.50;99.90;;;;;;5137281;27;20036;-75
2023/06/11 01:13:47;;;;;;;14.95;13.38;;;15.40;99.90;;;;;;5136977;27;20391;-75
2023/06/11 01:16:20;;;;;;;18.15;11.85;;;15.40;99.90;;;;;;5137080;27;20035;-75
2023/06/11 01:19:03;;;;;;;16.67;12.05;;;15.30;99.90;;;;;;5118780;27;20050;-75
2023/06/11 01:21:39;;;;;;;19.10;12.90;;;15.30;99.90;;;;;;5118785;27;20391;-75
2023/06/11 01:24:28;;;;;;;14.73;12.57;;;15.30;99.90;;;;;;5118615;27;20031;-76
2023/06/11 01:27:04;;;;;;;17.35;12.60;;;15.20;99.90;;;;;;5119045;27;20038;-75
2023/06/11 01:29:32;;;;;;;15.82;12.35;;;15.20;99.90;;;;;;5137140;27;20157;-75
2023/06/11 01:32:00;;;;;;;15.73;12.75;;;15.20;99.90;;;;;;5118405;27;20050;-75
2023/06/11 01:34:26;;;;;;;21.77;13.53;;;15.10;99.90;;;;;;5136568;27;20408;-75
2023/06/11 01:36:52;;;;;;;15.75;12.00;;;15.10;99.90;;;;;;5118237;27;20645;-75
2023/06/11 01:39:19;;;;;;;15.23;13.23;;;15.00;99.90;;;;;;5118039;27;20031;-75
2023/06/11 01:41:45;;;;;;;15.50;12.93;;;15.00;99.90;;;;;;5136938;27;20122;-75
2023/06/11 01:44:10;;;;;;;19.40;13.32;;;14.90;99.90;;;;;;5136611;27;20023;-75
2023/06/11 01:46:36;;;;;;;17.17;13.73;;;14.90;99.90;;;;;;5136515;27;20034;-75
2023/06/11 01:49:02;;;;;;;16.05;13.13;;;14.90;99.90;;;;;;5136655;27;20534;-75
2023/06/11 01:51:27;;;;;;;20.70;14.07;;;14.90;99.90;;;;;;5136205;27;20031;-75
2023/06/11 01:53:54;;;;;;;17.88;13.40;;;14.80;99.90;;;;;;5117975;27;20046;-75
2023/06/11 01:56:20;;;;;;;19.35;14.73;;;14.80;99.90;;;;;;5136351;27;20023;-75
2023/06/11 01:58:47;;;;;;;20.88;13.98;;;14.80;99.90;;;;;;5117866;27;20499;-75
2023/06/11 02:01:12;;;;;;;15.63;12.73;;;14.70;99.90;;;;;;5117993;27;20361;-75
2023/06/11 02:03:40;;;;;;;15.20;12.75;;;14.70;99.90;;;;;;5136035;27;20052;-75
2023/06/11 02:06:07;;;;;;;16.52;13.63;;;14.70;99.90;;;;;;5117959;27;20123;-75
2023/06/11 02:08:32;;;;;;;15.93;12.30;;;14.70;99.90;;;;;;5117885;27;20032;-75
2023/06/11 02:10:58;;;;;;;18.20;13.82;;;14.60;99.90;;;;;;5117952;27;20054;-75
2023/06/11 02:13:30;;;;;;;14.52;12.93;;;14.60;99.90;;;;;;5117593;27;20508;-75
2023/06/11 02:15:57;;;;;;;15.02;12.90;;;14.60;99.90;;;;;;5135951;27;20027;-75
2023/06/11 02:18:22;;;;;;;17.05;12.80;;;14.60;99.90;;;;;;5135855;27;20031;-76
2023/06/11 02:20:48;;;;;;;17.02;12.90;;;14.60;99.90;;;;;;5135363;27;20103;-75
2023/06/11 02:23:13;;;;;;;15.93;13.40;;;14.60;99.90;;;;;;5136046;27;20489;-75
2023/06/11 02:25:39;;;;;;;18.17;13.60;;;14.60;99.90;;;;;;5135777;27;20031;-75
2023/06/11 02:28:05;;;;;;;24.58;14.27;;;14.60;99.90;;;;;;5117983;27;20046;-76
2023/06/11 02:30:31;;;;;;;18.17;14.50;;;14.50;99.90;;;;;;5135686;27;20038;-75
2023/06/11 02:32:57;;;;;;;17.38;12.93;;;14.50;99.90;;;;;;5117319;27;20032;-75
2023/06/11 02:35:22;;;;;;;16.58;14.10;;;14.50;99.90;;;;;;5135136;27;20043;-75
2023/06/11 02:37:48;;;;;;;17.92;14.02;;;14.60;99.90;;;;;;5135182;27;20074;-75
2023/06/11 02:40:13;;;;;;;16.00;13.50;;;14.50;99.90;;;;;;5117687;27;20484;-75
2023/06/11 02:42:39;;;;;;;13.70;12.30;;;14.50;99.90;;;;;;5116893;27;20039;-75
2023/06/11 02:45:05;;;;;;;16.63;13.50;;;14.50;99.90;;;;;;5116959;27;20038;-75
2023/06/11 02:47:31;;;;;;;15.68;12.80;;;14.60;99.90;;;;;;5116989;27;20038;-75
2023/06/11 02:49:57;;;;;;;17.95;13.25;;;14.50;99.90;;;;;;5116964;27;20495;-75
2023/06/11 02:52:22;;;;;;;18.27;13.32;;;14.50;99.90;;;;;;5134940;27;20035;-75
2023/06/11 02:54:48;;;;;;;20.23;12.82;;;14.50;99.90;;;;;;5135282;27;20057;-75
2023/06/11 02:57:14;;;;;;;19.05;13.55;;;14.40;99.90;;;;;;5135168;27;20100;-75
2023/06/11 02:59:40;;;;;;;18.25;13.57;;;14.40;99.90;;;;;;5134875;27;20438;-76
2023/06/11 03:02:05;;;;;;;16.52;14.10;;;14.40;99.90;;;;;;5116797;27;20034;-75
2023/06/11 03:04:31;;;;;;;15.40;13.80;;;14.40;99.90;;;;;;5116855;27;20127;-75
2023/06/11 03:06:56;;;;;;;17.48;14.50;;;14.30;99.90;;;;;;5135251;27;20464;-75
2023/06/11 03:09:24;;;;;;;23.50;15.50;;;14.30;99.90;;;;;;5116607;27;20031;-75
2023/06/11 03:11:52;;;;;;;16.63;14.05;;;14.30;99.90;;;;;;5116628;27;20035;-76
2023/06/11 03:14:20;;;;;;;16.95;13.32;;;14.30;99.90;;;;;;5116556;27;20035;-75
2023/06/11 03:16:46;;;;;;;18.92;13.75;;;14.30;99.90;;;;;;5116362;27;20081;-75
2023/06/11 03:19:12;;;;;;;21.40;14.27;;;14.30;99.90;;;;;;5116527;27;20047;-75
2023/06/11 03:21:37;;;;;;;18.42;13.65;;;14.30;99.90;;;;;;5116610;28;20173;-75
2023/06/11 03:24:03;;;;;;;19.65;13.82;;;14.20;99.90;;;;;;5116453;28;20365;-75
2023/06/11 03:26:29;;;;;;;18.88;13.10;;;14.20;99.90;;;;;;5116265;28;20031;-75
2023/06/11 03:28:54;;;;;;;17.17;13.68;;;14.20;99.90;;;;;;5116558;28;20404;-75
2023/06/11 03:31:20;;;;;;;17.55;13.82;;;14.20;99.90;;;;;;5116465;28;20459;-75
2023/06/11 03:33:46;;;;;;;16.38;12.90;;;14.30;99.90;;;;;;5116401;28;20046;-75
2023/06/11 03:36:11;;;;;;;17.63;14.05;;;14.20;99.90;;;;;;5135085;28;20028;-75
2023/06/11 03:38:37;;;;;;;21.40;14.48;;;14.20;99.90;;;;;;5116280;28;20498;-75
2023/06/11 03:41:03;;;;;;;19.35;13.18;;;14.30;99.90;;;;;;5135062;28;20027;-75
2023/06/11 03:43:28;;;;;;;18.48;13.73;;;14.30;99.90;;;;;;5116320;28;20131;-75
2023/06/11 03:45:54;;;;;;;15.60;12.27;;;14.30;99.90;;;;;;5116051;27;20491;-75
2023/06/11 03:48:20;;;;;;;18.98;13.88;;;14.30;99.90;;;;;;5119716;27;20042;-75
2023/06/11 03:50:45;;;;;;;17.95;12.48;;;14.40;99.90;;;;;;5138529;27;20037;-75
2023/06/11 03:53:11;;;;;;;14.77;12.30;;;14.40;99.90;;;;;;5138738;27;20062;-75
2023/06/11 03:55:37;;;;;;;13.27;11.20;;;14.40;99.90;;;;;;5138515;27;20042;-75
2023/06/11 03:58:02;;;;;;;16.17;12.32;;;14.50;99.90;;;;;;5120258;27;20074;-75
2023/06/11 04:00:31;;;;;;;15.38;11.15;;;14.50;99.90;;;;;;5120480;27;20035;-75
2023/06/11 04:03:00;;;;;;;13.57;11.00;;;14.50;99.90;;;;;;5120647;27;20032;-75
2023/06/11 04:05:25;;;;;;;13.43;10.05;;;14.60;99.90;;;;;;5138666;27;20039;-75
2023/06/11 04:07:51;;;;;;;15.48;11.07;;;14.60;99.90;;;;;;5120006;27;20533;-75
2023/06/11 04:10:17;;;;;;;11.85;10.65;;;14.60;99.90;;;;;;5138193;27;20537;-75
2023/06/11 04:12:42;;;;;;;14.77;10.23;;;14.60;99.90;;;;;;5138424;27;20110;-75
2023/06/11 04:15:08;;;;;;;13.77;9.82;;;14.70;99.90;;;;;;5138671;27;20039;-75
2023/06/11 04:17:34;;;;;;;11.57;9.90;;;14.70;99.90;;;;;;5119902;27;20142;-75
2023/06/11 04:20:00;;;;;;;13.15;9.30;;;14.70;99.90;;;;;;5119834;27;20496;-75
2023/06/11 04:22:26;;;;;;;10.80;9.65;;;14.80;99.90;;;;;;5138144;27;20059;-75
2023/06/11 04:24:53;;;;;;;12.48;9.77;;;14.80;99.90;;;;;;5138414;27;20031;-75
2023/06/11 04:27:20;;;;;;;15.95;9.77;;;14.90;99.90;;;;;;5138166;27;20078;-74
2023/06/11 04:29:48;;;;;;;12.07;9.00;;;14.90;99.90;;;;;;5138025;27;20111;-74
2023/06/11 04:32:16;;;;;;;13.68;9.10;;;14.90;99.90;;;;;;5119481;27;20035;-75
2023/06/11 04:34:43;;;;;;;11.52;9.45;;;14.90;99.90;;;;;;5119491;27;20489;-76
2023/06/11 04:37:09;;;;;;;11.77;8.73;;;15.00;99.90;;;;;;5138086;27;20186;-74
2023/06/11 04:39:35;;;;;;;10.98;8.80;;;15.00;99.90;;;;;;5119643;27;20456;-75
2023/06/11 04:42:02;;;;;;;9.35;8.43;;;15.00;99.90;;;;;;5119454;27;20031;-75
2023/06/11 04:44:28;;;;;;;14.05;9.23;;;15.10;99.90;;;;;;5119267;27;20460;-74
2023/06/11 04:46:57;;;;;;;9.50;8.00;;;15.20;99.90;;;;;;5137662;27;20031;-75
2023/06/11 04:49:23;;;;;;;9.73;8.00;;;15.20;99.90;;;;;;5119324;27;20396;-75
2023/06/11 04:51:48;;;;;;;8.73;7.55;;;15.20;99.90;;;;;;5119676;27;20084;-76
2023/06/11 04:54:17;;;;;;;9.30;8.35;;;15.30;99.90;;;;;;5137774;27;20039;-75
2023/06/11 04:56:43;;;;;;;11.15;8.52;;;15.40;99.90;;;;;;5137615;27;20031;-75
2023/06/11 04:59:09;;;;;;;12.77;8.82;;;15.50;99.90;;;;;;5137144;27;20028;-75
2023/06/11 05:01:37;;;;;;;10.50;7.20;;;15.60;99.90;;;;;;5137489;27;20050;-77
2023/06/11 05:04:03;;;;;;;10.45;7.43;;;15.70;99.90;;;;;;5118940;27;20032;-74
2023/06/11 05:06:29;;;;;;;10.95;7.57;;;15.80;99.90;;;;;;5137331;27;20095;-77
2023/06/11 05:08:55;;;;;;;8.18;7.38;;;15.90;99.90;;;;;;5118927;27;20528;-77
2023/06/11 05:11:21;;;;;;;10.40;6.35;;;16.10;99.90;;;;;;5118880;27;20118;-77
2023/06/11 05:13:46;;;;;;;8.07;6.35;;;16.20;99.90;;;;;;5118777;27;20031;-77
2023/06/11 05:16:12;;;;;;;10.40;6.60;;;16.30;99.90;;;;;;5136873;27;20032;-77
2023/06/11 05:18:38;;;;;;;9.77;6.88;;;16.40;99.90;;;;;;5118385;27;20058;-77
2023/06/11 05:21:05;;;;;;;10.10;6.47;;;16.50;99.90;;;;;;5119006;27;20043;-76
2023/06/11 05:23:31;;;;;;;9.05;6.80;;;16.50;99.90;;;;;;5118764;27;20384;-76
2023/06/11 05:26:13;;;;;;;7.30;6.32;;;16.50;99.90;;;;;;5118570;27;20036;-76
2023/06/11 05:28:39;;;;;;;8.65;6.05;;;16.50;99.90;;;;;;5118739;27;20042;-76
2023/06/11 05:31:06;;;;;;;8.95;6.18;;;16.60;99.90;;;;;;5118477;27;20038;-76
2023/06/11 05:33:32;;;;;;;11.43;6.15;;;16.50;99.90;;;;;;5118294;27;20068;-75
2023/06/11 05:35:57;;;;;;;8.88;6.63;;;16.60;99.90;;;;;;5118313;27;20070;-75
2023/06/11 05:38:24;;;;;;;14.73;6.38;;;16.60;99.90;;;;;;5136678;27;20077;-76
2023/06/11 05:40:50;;;;;;;6.75;6.05;;;16.60;99.90;;;;;;5118003;27;20035;-76
2023/06/11 05:43:16;;;;;;;13.65;6.65;;;16.70;99.90;;;;;;5118241;27;20122;-75
2023/06/11 05:45:49;;;;;;;9.93;6.50;;;16.70;99.90;;;;;;5136400;27;20039;-76
2023/06/11 05:48:16;;;;;;;27.27;6.93;;;16.60;99.90;;;;;;5136572;27;20023;-75
2023/06/11 05:50:42;;;;;;;8.00;6.10;;;16.60;99.90;;;;;;5118119;27;20525;-75
2023/06/11 05:53:09;;;;;;;6.88;6.18;;;16.70;99.90;;;;;;5117975;27;20028;-75
2023/06/11 05:55:35;;;;;;;7.10;6.40;;;16.60;99.90;;;;;;5117942;27;20035;-75
2023/06/11 05:58:01;;;;;;;7.15;6.20;;;16.70;99.90;;;;;;5117184;27;20051;-75
2023/06/11 06:00:28;;;;;;;7.30;6.60;;;16.80;99.90;;;;;;5136017;27;20200;-75
2023/06/11 06:02:53;;;;;;;8.55;6.35;;;16.80;99.90;;;;;;5136198;27;20519;-75
2023/06/11 06:05:19;;;;;;;9.02;6.05;;;16.80;99.90;;;;;;5117920;27;20126;-75
2023/06/11 06:07:45;;;;;;;9.50;7.40;;;16.80;99.90;;;;;;5117947;27;20155;-75
2023/06/11 06:10:10;;;;;;;8.98;7.22;;;16.90;99.90;;;;;;5135303;27;20456;-75
2023/06/11 06:12:36;;;;;;;8.93;6.72;;;16.90;99.90;;;;;;5117558;27;20038;-74
2023/06/11 06:15:02;;;;;;;7.25;6.38;;;16.90;99.90;;;;;;5117738;27;20096;-75
2023/06/11 06:17:28;;;;;;;9.55;6.82;;;17.00;99.90;;;;;;5135960;27;20039;-74
2023/06/11 06:19:53;;;;;;;7.80;6.97;;;17.00;99.90;;;;;;5135305;27;20046;-75
2023/06/11 06:22:19;;;;;;;8.85;6.55;;;17.10;99.90;;;;;;5135582;27;20033;-76
2023/06/11 06:24:45;;;;;;;8.13;6.78;;;17.10;99.90;;;;;;5117372;27;20130;-75
2023/06/11 06:27:11;;;;;;;8.48;7.03;;;17.10;99.90;;;;;;5135728;27;20511;-75
2023/06/11 06:29:38;;;;;;;11.32;7.82;;;17.00;99.90;;;;;;5116930;27;20027;-74
2023/06/11 06:32:05;;;;;;;9.02;7.68;;;16.90;99.90;;;;;;5135600;27;20110;-75
2023/06/11 06:34:31;;;;;;;11.45;7.97;;;16.80;99.90;;;;;;5135993;27;20035;-75
2023/06/11 06:36:57;;;;;;;8.38;7.57;;;16.80;99.90;;;;;;5116868;27;20039;-74
2023/06/11 06:39:22;;;;;;;9.30;7.68;;;16.70;99.90;;;;;;5135482;27;20130;-75
2023/06/11 06:41:48;;;;;;;9.70;7.50;;;16.70;99.90;;;;;;5135540;27;20114;-62
2023/06/11 06:44:20;;;;;;;9.00;7.80;;;16.70;99.90;;;;;;5135375;27;20111;-62
2023/06/11 06:46:45;;;;;;;7.82;7.03;;;16.70;99.90;;;;;;5135528;27;20106;-62
2023/06/11 06:49:11;;;;;;;11.60;8.15;;;16.80;99.90;;;;;;5135233;27;20448;-62
2023/06/11 06:51:37;;;;;;;8.98;8.07;;;16.80;99.90;;;;;;5135192;27;20031;-61
2023/06/11 06:54:03;;;;;;;11.35;7.85;;;16.90;99.90;;;;;;5135183;27;20027;-62
2023/06/11 06:56:29;;;;;;;12.13;7.90;;;16.90;99.90;;;;;;5135022;27;20053;-61
2023/06/11 06:58:54;;;;;;;11.80;7.53;;;16.90;99.90;;;;;;5134783;27;20032;-61
2023/06/11 07:01:20;;;;;;;7.93;7.15;;;17.00;99.90;;;;;;5116796;27;20456;-62
2023/06/11 07:03:46;;;;;;;9.15;7.57;;;17.10;99.90;;;;;;5135075;27;20485;-61
2023/06/11 07:06:11;;;;;;;11.43;7.30;;;17.10;99.90;;;;;;5135273;27;20493;-61
2023/06/11 07:08:40;;;;;;;9.63;7.32;;;17.10;99.90;;;;;;5134972;27;20047;-62
2023/06/11 07:11:06;;;;;;;10.65;8.18;;;17.10;99.90;;;;;;5135027;27;20027;-62
2023/06/11 07:13:32;;;;;;;9.13;8.00;;;17.10;99.90;;;;;;5135110;27;20031;-62
2023/06/11 07:15:57;;;;;;;10.13;8.20;;;17.10;99.90;;;;;;5134864;27;20102;-62
2023/06/11 07:18:24;;;;;;;8.68;7.88;;;17.10;99.90;;;;;;5134773;27;20039;-62
2023/06/11 07:20:50;;;;;;;9.98;7.38;;;17.20;99.90;;;;;;5134904;27;20510;-62
2023/06/11 07:23:16;;;;;;;8.50;7.65;;;17.20;99.90;;;;;;5135337;27;20031;-61
2023/06/11 07:25:43;;;;;;;10.55;7.88;;;17.30;99.90;;;;;;5134746;27;20106;-61
2023/06/11 07:28:08;;;;;;;9.18;7.85;;;17.30;99.90;;;;;;5134740;28;20027;-61
2023/06/11 07:30:34;;;;;;;9.07;8.27;;;17.30;99.90;;;;;;5134745;28;20556;-62
2023/06/11 07:33:00;;;;;;;9.15;8.00;;;17.30;99.90;;;;;;5134589;28;20027;-62
2023/06/11 07:35:26;;;;;;;10.27;7.95;;;17.30;99.90;;;;;;5134864;28;20537;-61
2023/06/11 07:37:53;;;;;;;10.07;7.72;;;17.30;99.90;;;;;;5116083;28;20031;-62
2023/06/11 07:40:19;;;;;;;9.35;7.95;;;17.40;99.90;;;;;;5116141;28;20513;-62
2023/06/11 07:42:46;;;;;;;9.80;8.10;;;17.40;99.90;;;;;;5134493;28;20039;-61
2023/06/11 07:45:12;;;;;;;9.25;7.65;;;17.40;99.90;;;;;;5116123;28;20027;-62
2023/06/11 07:47:38;;;;;;;8.27;7.57;;;17.50;99.90;;;;;;5134166;28;20388;-62
2023/06/11 07:50:05;;;;;;;8.88;7.45;;;17.60;99.90;;;;;;5134241;28;20039;-62
2023/06/11 07:52:31;;;;;;;11.25;7.80;;;17.80;99.90;;;;;;5134119;28;20031;-61
2023/06/11 07:54:56;;;;;;;10.20;7.40;;;17.90;99.90;;;;;;5133780;28;20084;-62
2023/06/11 07:57:22;;;;;;;8.88;7.97;;;17.90;99.90;;;;;;5134277;28;20118;-62
2023/06/11 07:59:48;;;;;;;8.77;7.97;;;18.00;99.90;;;;;;5134397;28;20035;-62
2023/06/11 08:02:14;;;;;;;8.57;7.53;;;18.00;99.90;;;;;;5134058;28;20031;-62
2023/06/11 08:04:41;;;;;;;12.10;8.07;;;18.20;99.90;;;;;;5134373;28;20065;-62
2023/06/11 08:07:07;;;;;;;7.85;7.10;;;18.30;99.90;;;;;;5134308;28;20039;-63
2023/06/11 08:09:35;;;;;;;8.02;7.22;;;18.30;99.90;;;;;;5134541;28;20088;-62
2023/06/11 08:12:01;;;;;;;8.38;6.80;;;18.40;99.90;;;;;;5134231;28;20043;-62
2023/06/11 08:14:27;;;;;;;7.40;6.72;;;18.40;99.90;;;;;;5134300;28;20035;-62
2023/06/11 08:16:52;;;;;;;7.57;6.78;;;18.40;99.90;;;;;;5133904;28;20100;-62
2023/06/11 08:19:18;;;;;;;12.35;7.72;;;18.40;99.90;;;;;;5134128;28;20054;-62
2023/06/11 08:21:44;;;;;;;7.85;7.05;;;18.40;99.90;;;;;;5134332;28;20040;-62
2023/06/11 08:24:10;;;;;;;7.88;6.80;;;18.30;99.90;;;;;;5134925;28;20427;-62
2023/06/11 08:26:36;;;;;;;7.88;7.07;;;18.40;99.90;;;;;;5116183;28;20095;-63
2023/06/11 08:29:02;;;;;;;7.88;7.03;;;18.40;99.90;;;;;;5115753;28;20118;-63
2023/06/11 08:31:28;;;;;;;8.65;7.75;;;18.30;99.90;;;;;;5134068;28;20038;-63
2023/06/11 08:33:53;;;;;;;7.95;7.20;;;18.40;99.90;;;;;;5136544;27;20031;-63
2023/06/11 08:36:20;;;;;;;7.72;6.97;;;18.30;99.90;;;;;;5137826;27;20031;-65
2023/06/11 08:38:46;;;;;;;7.97;6.85;;;18.30;99.90;;;;;;5137915;27;20070;-63
2023/06/11 08:41:13;;;;;;;9.07;7.72;;;18.30;99.90;;;;;;5137718;27;20043;-63
2023/06/11 08:43:38;;;;;;;7.57;6.85;;;18.40;99.90;;;;;;5137448;27;20031;-67
2023/06/11 08:46:07;;;;;;;7.90;7.13;;;18.40;99.90;;;;;;5119265;27;20378;-66
2023/06/11 08:48:38;;;;;;;7.90;7.20;;;18.40;99.90;;;;;;5137472;27;20042;-67
2023/06/11 08:51:08;;;;;;;6.97;6.32;;;18.40;99.90;;;;;;5137552;27;20445;-74
2023/06/11 08:53:35;;;;;;;7.65;6.95;;;18.50;99.90;;;;;;5137926;27;20027;-70
2023/06/11 08:56:01;;;;;;;9.52;7.20;;;18.50;99.90;;;;;;5137473;27;20437;-61
2023/06/11 08:58:30;;;;;;;8.45;7.10;;;18.50;99.90;;;;;;5137295;27;20041;-61
2023/06/11 09:00:56;;;;;;;7.70;7.00;;;18.50;99.90;;;;;;5137309;27;20131;-71
2023/06/11 09:03:21;;;;;;;9.20;7.50;;;18.40;99.90;;;;;;5118809;27;20031;-71
2023/06/11 09:05:48;;;;;;;7.93;7.22;;;18.40;99.90;;;;;;5137081;27;20023;-70
2023/06/11 09:08:14;;;;;;;9.07;7.45;;;18.40;99.90;;;;;;5137103;27;20134;-69
2023/06/11 09:10:50;;;;;;;7.38;6.68;;;18.40;99.90;;;;;;5137060;27;20474;-70
2023/06/11 09:13:17;;;;;;;6.90;6.30;;;18.50;99.90;;;;;;5136950;27;20034;-70
2023/06/11 09:15:52;;;;;;;7.47;6.88;;;18.60;99.90;;;;;;5118877;27;20145;-66
2023/06/11 09:18:22;;;;;;;6.75;6.25;;;18.60;99.90;;;;;;5136569;27;20039;-66
2023/06/11 09:20:50;;;;;;;7.90;7.10;;;18.60;99.90;;;;;;5137277;27;20047;-67
2023/06/11 09:23:27;;;;;;;7.57;6.60;;;18.60;99.90;;;;;;5137416;27;20030;-69
2023/06/11 09:25:53;;;;;;;8.57;6.85;;;18.60;99.90;;;;;;5118386;27;20038;-70
2023/06/11 09:28:19;;;;;;;7.50;6.70;;;18.70;99.90;;;;;;5136835;27;20468;-69
2023/06/11 09:30:55;;;;;;;8.57;6.75;;;18.80;99.90;;;;;;5136766;27;20160;-70
2023/06/11 09:33:21;;;;;;;8.68;7.00;;;19.00;99.90;;;;;;5136478;27;20106;-70
2023/06/11 09:35:47;;;;;;;7.60;6.90;;;19.00;99.90;;;;;;5118501;27;20054;-69
2023/06/11 09:38:16;;;;;;;7.47;6.80;;;18.90;99.90;;;;;;5136706;27;20472;-71
2023/06/11 09:40:54;;;;;;;7.72;6.57;;;18.80;99.90;;;;;;5136594;27;20031;-70
2023/06/11 09:43:21;;;;;;;7.80;7.00;;;18.70;99.90;;;;;;5136728;27;20031;-71
2023/06/11 09:45:55;;;;;;;7.68;6.80;;;18.70;99.90;;;;;;5116809;27;20039;-70
2023/06/11 09:48:22;;;;;;;7.35;6.65;;;18.70;99.90;;;;;;5118841;27;20050;-68
2023/06/11 09:50:51;;;;;;;8.75;6.85;;;18.90;99.90;;;;;;5136411;27;20028;-71
2023/06/11 09:53:22;;;;;;;8.50;6.55;;;19.00;99.90;;;;;;5136054;27;20036;-70
2023/06/11 09:55:50;;;;;;;7.72;7.03;;;19.20;99.90;;;;;;5117864;27;20468;-69
2023/06/11 09:58:17;;;;;;;8.05;6.93;;;19.30;99.90;;;;;;5136228;27;20100;-70
2023/06/11 10:00:47;;;;;;;7.47;6.43;;;19.30;99.90;;;;;;5136217;27;20110;-70
2023/06/11 10:03:12;;;;;;;7.43;6.47;;;19.40;99.90;;;;;;5117838;27;20031;-70
2023/06/11 10:05:38;;;;;;;7.93;7.20;;;19.30;99.90;;;;;;5135793;27;20062;-69
2023/06/11 10:08:13;;;;;;;7.07;6.47;;;19.20;99.90;;;;;;5136022;27;20085;-69
2023/06/11 10:10:41;;;;;;;6.90;6.35;;;19.20;99.90;;;;;;5136063;27;20077;-69
2023/06/11 10:13:07;;;;;;;7.50;6.67;;;19.20;99.90;;;;;;5117547;27;20130;-70
2023/06/11 10:15:35;;;;;;;9.05;6.35;;;19.20;99.90;;;;;;5117481;27;20455;-76
2023/06/11 10:18:11;;;;;;;7.78;6.72;;;19.20;99.90;;;;;;5135734;27;20031;-75
2023/06/11 10:20:37;;;;;;;7.00;6.40;;;19.10;99.90;;;;;;5136653;27;20134;-74
2023/06/11 10:23:11;;;;;;;6.75;6.10;;;19.20;99.90;;;;;;5117344;27;20027;-68
2023/06/11 10:25:40;;;;;;;7.03;6.20;;;19.30;99.90;;;;;;5135901;27;20046;-62
2023/06/11 10:28:08;;;;;;;7.40;6.70;;;19.50;99.90;;;;;;5135663;27;20438;-65
2023/06/11 10:30:34;;;;;;;9.73;6.60;;;19.50;99.90;;;;;;5135550;27;20035;-64
2023/06/11 10:33:00;;;;;;;7.95;6.38;;;19.60;99.90;;;;;;5135572;27;20109;-66
2023/06/11 10:35:32;;;;;;;7.47;6.78;;;19.70;99.90;;;;;;5135605;27;20031;-63
2023/06/11 10:38:18;;;;;;;7.13;6.47;;;19.70;99.90;;;;;;5135679;27;20172;-64
2023/06/11 10:40:45;;;;;;;7.53;6.55;;;19.70;99.90;;;;;;5135349;27;20053;-63
2023/06/11 10:43:20;;;;;;;10.13;6.40;;;19.70;99.90;;;;;;5135395;27;20024;-63
2023/06/11 10:45:59;;;;;;;7.45;6.63;;;19.90;99.90;;;;;;5117143;27;20042;-65
2023/06/11 10:48:31;;;;;;;6.97;6.28;;;20.10;99.90;;;;;;5135200;27;20035;-61
2023/06/11 10:51:00;;;;;;;11.40;10.20;;;20.50;99.90;;;;;;5134950;27;20038;-66
2023/06/11 10:53:40;;;;;;;45.88;21.02;;;20.70;99.90;;;;;;5135659;27;20116;-63
2023/06/11 10:56:11;;;;;;;20.77;11.48;;;20.80;99.90;;;;;;5135355;27;20043;-60
2023/06/11 10:58:38;;;;;;;9.95;7.70;;;20.90;99.90;;;;;;5135248;27;20070;-61
2023/06/11 11:01:08;;;;;;;12.23;7.90;;;20.90;99.90;;;;;;5135050;27;20460;-60
2023/06/11 11:03:34;;;;;;;10.18;8.10;;;20.70;99.90;;;;;;5135264;27;20039;-59
2023/06/11 11:06:00;;;;;;;10.13;6.82;;;20.50;99.90;;;;;;5116577;27;20464;-59
2023/06/11 11:08:26;;;;;;;7.47;6.78;;;20.30;99.90;;;;;;5135409;27;20100;-60
2023/06/11 11:11:02;;;;;;;9.88;8.38;;;20.10;99.90;;;;;;5134846;27;20031;-59
2023/06/11 11:13:31;;;;;;;8.60;7.47;;;20.00;99.90;;;;;;5135282;27;20043;-59
2023/06/11 11:16:00;;;;;;;8.75;6.60;;;19.90;99.90;;;;;;5134536;27;20031;-68
2023/06/11 11:18:26;;;;;;;8.00;7.03;;;19.70;99.90;;;;;;5134688;27;20066;-62
2023/06/11 11:20:56;;;;;;;8.30;6.18;;;19.60;99.90;;;;;;5134783;27;20046;-62
2023/06/11 11:23:25;;;;;;;8.93;6.50;;;19.60;99.90;;;;;;5135109;27;20036;-62
2023/06/11 11:25:51;;;;;;;10.38;6.75;;;19.60;99.90;;;;;;5134555;27;20038;-62
2023/06/11 11:28:17;;;;;;;7.20;6.53;;;19.70;99.90;;;;;;5134989;27;20038;-61
2023/06/11 11:30:42;;;;;;;7.53;6.75;;;19.60;99.90;;;;;;5134341;27;20043;-61
2023/06/11 11:33:10;;;;;;;7.75;6.63;;;19.70;99.90;;;;;;5134584;27;20074;-62
2023/06/11 11:35:53;;;;;;;10.77;7.30;;;19.70;99.90;;;;;;5134639;28;20032;-61
2023/06/11 11:38:20;;;;;;;7.95;7.20;;;19.80;99.90;;;;;;5134699;28;20043;-72
2023/06/11 11:40:52;;;;;;;9.50;7.30;;;19.90;99.90;;;;;;5134584;28;20038;-72
2023/06/11 11:43:18;;;;;;;8.57;6.93;;;20.10;99.90;;;;;;5134882;28;20031;-72
2023/06/11 11:45:48;;;;;;;10.20;6.80;;;20.20;99.90;;;;;;5134221;28;20023;-72
2023/06/11 11:48:15;;;;;;;7.30;6.60;;;20.30;99.90;;;;;;5116102;28;20039;-72
2023/06/11 11:50:41;;;;;;;7.82;7.13;;;20.50;99.90;;;;;;5116152;28;20031;-72
2023/06/11 11:53:08;;;;;;;9.50;7.18;;;20.50;99.90;;;;;;5134532;28;20035;-72
2023/06/11 11:55:37;;;;;;;7.32;6.72;;;20.60;99.90;;;;;;5134471;28;20063;-73
2023/06/11 11:58:12;;;;;;;7.93;6.57;;;20.60;99.90;;;;;;5134554;28;20051;-72
2023/06/11 12:00:52;;;;;;;9.82;6.95;;;20.50;99.90;;;;;;5134579;28;20313;-71
2023/06/11 12:03:21;;;;;;;8.50;6.50;;;20.50;99.90;;;;;;5116078;28;20035;-70
2023/06/11 12:06:01;;;;;;;7.20;6.50;;;20.40;99.90;;;;;;5133354;28;20039;-71
2023/06/11 12:08:28;;;;;;;10.23;6.93;;;20.30;99.90;;;;;;5135646;27;20088;-71
2023/06/11 12:10:55;;;;;;;7.90;6.88;;;20.10;99.90;;;;;;5138238;27;20038;-69
2023/06/11 12:13:20;;;;;;;8.07;7.20;;;20.10;99.90;;;;;;5138164;27;20032;-61
2023/06/11 12:15:47;;;;;;;8.95;6.85;;;20.10;99.90;;;;;;5137770;27;20171;-72
2023/06/11 12:18:12;;;;;;;7.50;6.82;;;20.20;99.90;;;;;;5119653;27;20073;-72
2023/06/11 12:20:38;;;;;;;7.93;7.10;;;20.20;99.90;;;;;;5119704;27;20050;-70
2023/06/11 12:23:04;;;;;;;8.50;7.38;;;20.20;99.90;;;;;;5119453;27;20384;-70
2023/06/11 12:25:30;;;;;;;11.40;7.15;;;20.20;99.90;;;;;;5137952;27;20027;-70
2023/06/11 12:27:56;;;;;;;7.28;6.57;;;20.20;99.90;;;;;;5137874;27;20039;-70
2023/06/11 12:30:22;;;;;;;10.07;7.40;;;20.20;99.90;;;;;;5119501;27;20402;-70
2023/06/11 12:32:48;;;;;;;7.88;6.90;;;20.30;99.90;;;;;;5137788;27;20118;-70
2023/06/11 12:35:14;;;;;;;7.00;6.40;;;20.30;99.90;;;;;;5119350;27;20464;-71
2023/06/11 12:37:40;;;;;;;8.43;6.50;;;20.40;99.90;;;;;;5137587;27;20039;-71